Laconia, NH (03246)

7:58 AM EDT on April 27, 2017 (GMT -0400)
KNHWEIRS3 | | Change Station

Elev 837 ft 43.55 °N, 71.43 °W | Updated 10 seconds ago

Overcast
Overcast
54.1 °F
Feels Like 54.1 °F
N
2.0
Wind Variable Wind from North
Gusts 2.0 mph

Today
High -- | Low -- °F
--% Chance of Precip.
Yesterday
High -- | Low -- °F
Precip. -- in
Pressure 29.98 in
Visibility 10.0 miles
Clouds Mostly Cloudy 900 ft
Overcast 1300 ft
Dew Point 54 °F
Humidity 100%
Rainfall 0.00 in
Snow Depth Not available.
5:43 AM 7:43 PM
New Moon, 1% visible
METAR KLCI 271156Z AUTO 10003KT 10SM BKN009 OVC013 13/12 A2992 RMK AO2 SLP151 60000 70013 T01280117 10128 20117 53011
Pressure 29.98 in
Visibility 10.0 miles
Clouds Mostly Cloudy 900 ft
Overcast 1300 ft
Dew Point 54 °F
Humidity 100%
Rainfall 0.00 in
Snow Depth Not available.
5:43 AM 7:43 PM
New Moon, 1% visible
METAR KLCI 271156Z AUTO 10003KT 10SM BKN009 OVC013 13/12 A2992 RMK AO2 SLP151 60000 70013 T01280117 10128 20117 53011

Get Severe Weather Alerts

Thanks for signing up!

Be on the lookout for a verification email in your inbox.

You'll start receiving the daily forecast at 8 AM.

×

10-Day Weather Forecast

Almanac

Astronomy

Apr. 27, 2017 Rise Set
Actual Time
Civil Twilight
Nautical Twilight
Astronomical Twilight
Moon
Length of Visible Light
Length of Day
Tomorrow will be .
, % of the Moon is Illuminated

Today's Extremes

State Highs State Lows

Community

WunderPhotos

WunderBlog® & News

Nearby

Air Quality

  Air Quality AQ Index Pollutant
Not available.

Snow Depth

Station Depth Elevation

Earthquake Activity

City Distance Mag. Time & Date
Minimum magnitude displayed is 2.5.

Coastal Water Temperatures

Place Temperature

Stations

Nearby Weather Stations

Station Location Temp. Windchill Dew Point Humidity Wind Precip. Elev Updated Type
                   

Watches & Warnings

There are currently no watches in effect.